Terminal Aerodrome Forecast
Issued by NWS

Home | Current Version | Previous Version | Text Only | Print | Product List | Glossary On
Versions: 1 2 3 4 5 6 7 8 9 10 11 12 13 14 15 16 17 18 19 20 21 22 23 24 25 26 27 28 29 30 31 32
878
FTUS46 KEKA 202338
TAFUKI
TAF
KUKI 202338Z 2100/2124 15011G18KT 4SM RA BR BKN025 OVC035
     FM210200 16015G25KT 4SM -RA OVC022
      TEMPO 2105/2109 -TSRA BKN025CB
     FM210900 15014G24KT 5SM -SHRA VCTS BKN025CB
     FM211200 20010G18KT 6SM -SHRA BR BKN020
     FM211400 14006KT 6SM -SHRA BKN030
     FM212000 29008KT P6SM VCTS BKN025CB=

USA.gov is the U.S. government's official web portal to all federal, state and local government web resources and services.